createdAt,value
2022-11-18T00:00:57.365Z,21.02
2022-11-18T00:03:24.730Z,21.04
2022-11-18T00:05:55.329Z,21.06
2022-11-18T00:08:22.744Z,21.08
2022-11-18T00:10:49.383Z,21.09
2022-11-18T00:13:34.798Z,21.09
2022-11-18T00:16:02.213Z,21.10
2022-11-18T00:18:29.089Z,21.12
2022-11-18T00:20:55.712Z,21.13
2022-11-18T00:23:22.469Z,21.14
2022-11-18T00:25:49.073Z,21.13
2022-11-18T00:28:15.808Z,21.14
2022-11-18T00:30:42.576Z,21.14
2022-11-18T00:33:09.311Z,21.15
2022-11-18T00:35:36.028Z,21.15
2022-11-18T00:38:02.635Z,21.13
2022-11-18T00:40:29.202Z,21.15
2022-11-18T00:42:56.539Z,21.14
2022-11-18T00:45:23.697Z,21.13
2022-11-18T00:47:50.320Z,21.14
2022-11-18T00:50:17.196Z,21.12
2022-11-18T00:52:43.897Z,21.14
2022-11-18T00:55:10.529Z,21.11
2022-11-18T00:57:37.203Z,21.11
2022-11-18T01:00:06.687Z,21.12
2022-11-18T01:02:33.350Z,21.09
2022-11-18T01:05:00.142Z,21.11
2022-11-18T01:07:26.897Z,21.09
2022-11-18T01:09:53.521Z,21.08
2022-11-18T01:12:38.911Z,21.06
2022-11-18T01:15:05.863Z,21.05
2022-11-18T01:17:32.623Z,21.03
2022-11-18T01:19:59.577Z,20.99
2022-11-18T01:22:26.242Z,20.98
2022-11-18T01:24:52.942Z,20.96
2022-11-18T01:27:19.564Z,20.96
2022-11-18T01:29:46.223Z,20.94
2022-11-18T01:32:28.287Z,20.90
2022-11-18T01:34:54.893Z,20.91
2022-11-18T01:37:21.678Z,20.88
2022-11-18T01:39:48.407Z,20.86
2022-11-18T01:42:16.131Z,20.85
2022-11-18T01:45:01.069Z,20.83
2022-11-18T01:47:30.079Z,20.80
2022-11-18T01:49:56.896Z,20.78
2022-11-18T01:52:23.666Z,20.77
2022-11-18T01:54:53.354Z,20.76
2022-11-18T01:57:22.604Z,20.72
2022-11-18T01:59:50.726Z,20.69
2022-11-18T02:02:17.773Z,20.70
2022-11-18T02:04:47.582Z,20.69
2022-11-18T02:07:15.064Z,20.66
2022-11-18T02:09:42.401Z,20.66
2022-11-18T02:12:10.139Z,20.64
2022-11-18T02:14:39.665Z,20.64
2022-11-18T02:17:06.322Z,20.59
2022-11-18T02:19:48.508Z,20.57
2022-11-18T02:22:15.132Z,20.55
2022-11-18T02:24:56.756Z,20.55
2022-11-18T02:27:42.246Z,20.55
2022-11-18T02:30:10.800Z,20.54
2022-11-18T02:32:37.433Z,20.54
2022-11-18T02:35:18.039Z,20.54
2022-11-18T02:37:54.834Z,20.51
2022-11-18T02:40:53.751Z,20.54
2022-11-18T02:43:23.282Z,20.57
2022-11-18T02:45:51.464Z,20.53
2022-11-18T02:48:19.739Z,20.51
2022-11-18T02:50:48.141Z,20.50
2022-11-18T02:53:17.027Z,20.50
2022-11-18T02:55:44.884Z,20.45
2022-11-18T02:58:12.020Z,20.47
2022-11-18T03:00:38.619Z,20.49
2022-11-18T03:03:37.843Z,20.47
2022-11-18T03:06:07.417Z,20.47
2022-11-18T03:08:46.747Z,20.46
2022-11-18T03:11:16.720Z,20.43
2022-11-18T03:14:07.139Z,20.44
2022-11-18T03:16:44.976Z,20.42
2022-11-18T03:19:32.884Z,20.42
2022-11-18T03:22:05.680Z,20.41
2022-11-18T03:24:34.206Z,20.37
2022-11-18T03:27:30.287Z,20.37
2022-11-18T03:30:04.034Z,20.34
2022-11-18T03:32:38.141Z,20.35
2022-11-18T03:35:10.080Z,20.34
2022-11-18T03:37:38.668Z,20.34
2022-11-18T03:40:25.569Z,20.30
2022-11-18T03:42:54.714Z,20.31
2022-11-18T03:45:27.295Z,20.31
2022-11-18T03:48:34.170Z,20.26
2022-11-18T03:51:07.427Z,20.24
2022-11-18T03:53:36.642Z,20.22
2022-11-18T03:56:17.096Z,20.20
2022-11-18T03:58:49.443Z,20.17
2022-11-18T04:01:18.493Z,20.14
2022-11-18T04:03:45.432Z,20.12
2022-11-18T04:06:20.780Z,20.10
2022-11-18T04:08:50.785Z,20.08
2022-11-18T04:11:40.463Z,20.05
2022-11-18T04:14:07.916Z,20.03
2022-11-18T04:16:44.562Z,20.03
2022-11-18T04:19:11.612Z,20.02
2022-11-18T04:21:38.194Z,19.99
2022-11-18T04:24:04.877Z,19.98
2022-11-18T04:26:31.825Z,19.95
2022-11-18T04:28:58.706Z,19.94
2022-11-18T04:31:25.396Z,19.94
2022-11-18T04:33:52.036Z,19.90
2022-11-18T04:36:20.099Z,19.93
2022-11-18T04:38:46.721Z,19.90
2022-11-18T04:41:13.355Z,19.87
2022-11-18T04:43:40.198Z,19.86
2022-11-18T04:46:06.865Z,19.84
2022-11-18T04:48:33.565Z,19.85
2022-11-18T04:51:04.099Z,19.84
2022-11-18T04:53:30.827Z,19.83
2022-11-18T04:55:57.542Z,19.81
2022-11-18T04:58:24.159Z,19.81
2022-11-18T05:00:51.255Z,19.79
2022-11-18T05:03:17.900Z,19.77
2022-11-18T05:05:44.544Z,19.76
2022-11-18T05:08:11.149Z,19.74
2022-11-18T05:10:38.491Z,19.73
2022-11-18T05:13:05.109Z,19.72
2022-11-18T05:15:32.283Z,19.71
2022-11-18T05:17:58.971Z,19.69
2022-11-18T05:20:25.680Z,19.68
2022-11-18T05:22:52.264Z,19.65
2022-11-18T05:25:18.892Z,19.66
2022-11-18T05:27:45.479Z,19.65
2022-11-18T05:30:12.618Z,19.64
2022-11-18T05:32:39.336Z,19.62
2022-11-18T05:35:06.192Z,19.62
2022-11-18T05:37:34.021Z,19.66
2022-11-18T05:40:00.645Z,19.66
2022-11-18T05:42:47.202Z,19.68
2022-11-18T05:45:13.955Z,19.69
2022-11-18T05:48:00.051Z,19.73
2022-11-18T05:50:26.685Z,19.77
2022-11-18T05:52:53.305Z,19.81
2022-11-18T05:55:21.023Z,19.84
2022-11-18T05:57:47.646Z,19.87
2022-11-18T06:00:14.578Z,19.91
2022-11-18T06:02:43.429Z,19.94
2022-11-18T06:05:11.630Z,19.97
2022-11-18T06:07:40.407Z,20.02
2022-11-18T06:10:07.262Z,20.06
2022-11-18T06:12:39.694Z,20.10
2022-11-18T06:15:09.969Z,20.15
2022-11-18T06:17:40.971Z,20.20
2022-11-18T06:20:08.337Z,20.24
2022-11-18T06:22:35.413Z,20.29
2022-11-18T06:25:02.956Z,20.31
2022-11-18T06:27:30.308Z,20.36
2022-11-18T06:29:57.051Z,20.40
2022-11-18T06:32:32.226Z,20.44
2022-11-18T06:34:58.814Z,20.49
2022-11-18T06:37:25.492Z,20.54
2022-11-18T06:39:52.151Z,20.58
2022-11-18T06:42:37.672Z,20.62
2022-11-18T06:45:05.293Z,20.67
2022-11-18T06:47:32.262Z,20.72
2022-11-18T06:49:58.917Z,20.75
2022-11-18T06:52:31.139Z,20.81
2022-11-18T06:54:57.759Z,20.86
2022-11-18T06:57:24.347Z,20.90
2022-11-18T06:59:52.012Z,20.95
2022-11-18T07:02:21.136Z,21.00
2022-11-18T07:04:48.023Z,21.04
2022-11-18T07:07:14.771Z,21.08
2022-11-18T07:09:41.526Z,21.13
2022-11-18T07:12:08.245Z,21.16
2022-11-18T07:14:34.879Z,21.19
2022-11-18T07:17:01.571Z,21.21
2022-11-18T07:19:32.809Z,21.26
2022-11-18T07:22:02.219Z,21.28
2022-11-18T07:24:28.799Z,21.31
2022-11-18T07:26:55.593Z,21.32
2022-11-18T07:29:22.280Z,21.34
2022-11-18T07:31:48.840Z,21.35
2022-11-18T07:34:15.583Z,21.36
2022-11-18T07:36:42.269Z,21.39
2022-11-18T07:39:09.290Z,21.38
2022-11-18T07:41:36.090Z,21.39
2022-11-18T07:44:03.664Z,21.40
2022-11-18T07:46:33.116Z,21.44
2022-11-18T07:49:00.622Z,21.40
2022-11-18T07:51:28.568Z,21.16
2022-11-18T07:53:55.478Z,21.15
2022-11-18T07:56:22.274Z,21.15
2022-11-18T07:58:52.170Z,21.16
2022-11-18T08:01:19.890Z,21.17
2022-11-18T08:03:47.174Z,21.19
2022-11-18T08:06:15.374Z,21.19
2022-11-18T08:08:42.456Z,21.20
2022-11-18T08:11:10.075Z,21.21
2022-11-18T08:13:36.941Z,21.21
2022-11-18T08:16:04.346Z,21.22
2022-11-18T08:18:31.744Z,21.23
2022-11-18T08:21:02.998Z,21.24
2022-11-18T08:23:33.106Z,21.25
2022-11-18T08:26:12.372Z,21.27
2022-11-18T08:28:39.121Z,21.30
2022-11-18T08:31:12.075Z,21.35
2022-11-18T08:33:38.788Z,21.36
2022-11-18T08:36:25.676Z,21.35
2022-11-18T08:38:52.292Z,21.35
2022-11-18T08:41:31.976Z,21.34
2022-11-18T08:43:58.687Z,21.32
2022-11-18T08:46:25.313Z,21.32
2022-11-18T08:48:51.953Z,21.31
2022-11-18T08:51:18.689Z,21.29
2022-11-18T08:53:45.288Z,21.31
2022-11-18T08:56:15.551Z,21.30
2022-11-18T08:58:42.879Z,21.30
2022-11-18T09:01:09.655Z,21.29
2022-11-18T09:03:37.328Z,21.27
2022-11-18T09:06:10.102Z,21.26
2022-11-18T09:08:37.015Z,21.25
2022-11-18T09:11:30.038Z,21.25
2022-11-18T09:15:05.833Z,21.25
2022-11-18T09:16:47.020Z,21.25
2022-11-18T09:22:01.718Z,21.23
2022-11-18T09:24:28.316Z,21.21
2022-11-18T09:26:54.953Z,21.20
2022-11-18T09:29:25.683Z,21.21
2022-11-18T09:31:55.256Z,21.20
2022-11-18T09:34:22.487Z,21.18
2022-11-18T09:36:49.893Z,21.17
2022-11-18T09:39:16.850Z,21.17
2022-11-18T09:41:53.811Z,21.16
2022-11-18T09:44:38.966Z,21.14
2022-11-18T09:47:25.021Z,21.13
2022-11-18T09:49:52.248Z,21.12
2022-11-18T09:52:21.094Z,21.10
2022-11-18T09:54:47.917Z,21.09
2022-11-18T09:57:16.165Z,21.07
2022-11-18T09:59:43.239Z,21.06
2022-11-18T10:02:23.350Z,21.05
2022-11-18T10:04:50.352Z,21.02
2022-11-18T10:07:33.039Z,21.00
2022-11-18T10:10:08.376Z,21.00
2022-11-18T10:12:40.417Z,20.98
2022-11-18T10:15:14.745Z,20.98
2022-11-18T10:17:51.908Z,20.95
2022-11-18T10:20:22.185Z,20.96
2022-11-18T10:22:59.148Z,20.95
2022-11-18T10:25:26.788Z,20.96
2022-11-18T10:27:53.817Z,20.96
2022-11-18T10:30:23.186Z,20.98
2022-11-18T10:32:54.317Z,20.97
2022-11-18T10:35:25.273Z,20.98
2022-11-18T10:38:07.918Z,20.99
2022-11-18T10:40:39.292Z,21.00
2022-11-18T10:43:06.364Z,21.00
2022-11-18T10:45:33.733Z,21.02
2022-11-18T10:48:07.162Z,21.03
2022-11-18T10:50:36.832Z,21.04
2022-11-18T10:53:04.567Z,21.06
2022-11-18T10:55:31.612Z,21.07
2022-11-18T10:58:08.263Z,21.07
2022-11-18T11:00:41.762Z,21.10
2022-11-18T11:03:22.153Z,21.11
2022-11-18T11:05:49.325Z,21.11
2022-11-18T11:08:37.373Z,21.13
2022-11-18T11:11:20.081Z,21.14
2022-11-18T11:13:46.989Z,21.16
2022-11-18T11:16:20.060Z,21.16
2022-11-18T11:18:54.467Z,21.19
2022-11-18T11:21:25.416Z,21.18
2022-11-18T11:23:52.409Z,21.18
2022-11-18T11:29:19.156Z,21.19
2022-11-18T11:31:58.034Z,21.20
2022-11-18T11:34:25.410Z,21.19
2022-11-18T11:36:59.836Z,21.20
2022-11-18T11:39:37.694Z,21.20
2022-11-18T11:42:14.226Z,21.19
2022-11-18T11:44:41.316Z,21.20
2022-11-18T11:47:23.421Z,21.20
2022-11-18T11:49:54.248Z,21.19
2022-11-18T11:52:28.645Z,21.20
2022-11-18T11:54:57.965Z,21.19
2022-11-18T11:57:26.045Z,21.17
2022-11-18T11:59:59.145Z,21.16
2022-11-18T12:02:28.916Z,21.15
2022-11-18T12:05:00.809Z,21.13
2022-11-18T12:07:32.775Z,21.09
2022-11-18T12:10:10.133Z,21.09
2022-11-18T12:12:45.506Z,21.08
2022-11-18T12:15:19.731Z,21.09
2022-11-18T12:17:52.671Z,21.07
2022-11-18T12:20:31.152Z,21.08
2022-11-18T12:23:08.064Z,21.08
2022-11-18T12:25:44.853Z,21.07
2022-11-18T12:28:11.783Z,21.08
2022-11-18T12:30:38.601Z,21.08
2022-11-18T12:33:11.733Z,21.08
2022-11-18T12:35:38.640Z,21.07
2022-11-18T12:38:05.623Z,21.08
2022-11-18T12:40:37.462Z,21.08
2022-11-18T12:43:15.486Z,21.10
2022-11-18T12:45:42.910Z,21.14
2022-11-18T12:48:24.210Z,21.17
2022-11-18T12:50:55.229Z,21.19
2022-11-18T12:53:31.685Z,21.21
2022-11-18T12:55:58.844Z,21.24
2022-11-18T12:58:27.077Z,21.26
2022-11-18T13:01:06.686Z,21.29
2022-11-18T13:03:34.639Z,21.29
2022-11-18T13:06:04.306Z,21.32
2022-11-18T13:08:31.432Z,21.32
2022-11-18T13:11:14.622Z,21.34
2022-11-18T13:13:42.467Z,21.33
2022-11-18T13:16:28.452Z,21.34
2022-11-18T13:18:55.302Z,21.36
2022-11-18T13:21:34.512Z,21.37
2022-11-18T13:24:01.709Z,21.37
2022-11-18T13:26:31.469Z,21.37
2022-11-18T13:29:09.603Z,21.37
2022-11-18T13:31:45.025Z,21.37
2022-11-18T13:34:17.234Z,21.38
2022-11-18T13:36:45.192Z,21.35
2022-11-18T13:39:19.014Z,21.35
2022-11-18T13:41:46.223Z,21.34
2022-11-18T13:44:23.266Z,21.34
2022-11-18T13:46:55.101Z,21.32
2022-11-18T13:49:24.486Z,21.32
2022-11-18T13:51:52.243Z,21.32
2022-11-18T13:54:24.686Z,21.30
2022-11-18T13:56:52.011Z,21.29
2022-11-18T13:59:20.716Z,21.29
2022-11-18T14:01:54.298Z,21.28
2022-11-18T14:04:22.695Z,21.27
2022-11-18T14:06:50.126Z,21.27
2022-11-18T14:09:17.457Z,21.28
2022-11-18T14:11:46.170Z,21.27
2022-11-18T14:14:28.452Z,21.24
2022-11-18T14:17:03.598Z,21.22
2022-11-18T14:19:31.851Z,21.21
2022-11-18T14:22:12.863Z,21.21
2022-11-18T14:24:40.245Z,21.20
2022-11-18T14:27:16.632Z,21.19
2022-11-18T14:29:50.102Z,21.17
2022-11-18T14:32:17.571Z,21.15
2022-11-18T14:34:44.629Z,21.13
2022-11-18T14:37:13.213Z,21.11
2022-11-18T14:39:40.643Z,21.11
2022-11-18T14:42:11.221Z,21.09
2022-11-18T14:44:38.660Z,21.07
2022-11-18T14:47:12.490Z,21.07
2022-11-18T14:49:39.980Z,21.04
2022-11-18T14:52:07.221Z,21.05
2022-11-18T14:54:34.340Z,21.04
2022-11-18T14:57:03.209Z,21.03
2022-11-18T14:59:30.633Z,21.04
2022-11-18T15:01:59.349Z,21.04
2022-11-18T15:04:26.638Z,21.02
2022-11-18T15:06:53.790Z,21.00
2022-11-18T15:09:23.520Z,21.01
2022-11-18T15:11:50.748Z,20.98
2022-11-18T15:14:18.158Z,20.99
2022-11-18T15:16:45.733Z,20.96
2022-11-18T15:19:15.141Z,20.95
2022-11-18T15:21:42.428Z,20.93
2022-11-18T15:24:09.636Z,20.91
2022-11-18T15:26:39.302Z,20.89
2022-11-18T15:29:06.736Z,20.89
2022-11-18T15:31:34.214Z,20.90
2022-11-18T15:34:06.567Z,20.90
2022-11-18T15:36:34.292Z,20.90
2022-11-18T15:39:01.562Z,20.89
2022-11-18T15:41:30.099Z,20.89
2022-11-18T15:43:58.426Z,20.86
2022-11-18T15:46:26.705Z,20.85
2022-11-18T15:48:54.982Z,20.86
2022-11-18T15:51:22.373Z,20.84
2022-11-18T15:53:49.617Z,20.85
2022-11-18T15:56:17.109Z,20.85
2022-11-18T15:58:44.414Z,20.84
2022-11-18T16:01:11.938Z,20.84
2022-11-18T16:03:39.151Z,20.85
2022-11-18T16:06:06.820Z,20.83
2022-11-18T16:08:34.199Z,20.84
2022-11-18T16:11:10.534Z,20.86
2022-11-18T16:13:37.621Z,20.88
2022-11-18T16:16:05.255Z,20.89
2022-11-18T16:18:35.405Z,20.92
2022-11-18T16:21:06.814Z,20.95
2022-11-18T16:23:34.054Z,20.96
2022-11-18T16:26:01.507Z,20.97
2022-11-18T16:28:28.608Z,20.99
2022-11-18T16:31:05.700Z,21.00
2022-11-18T16:33:33.075Z,21.02
2022-11-18T16:36:00.383Z,21.03
2022-11-18T16:38:27.993Z,21.02
2022-11-18T16:40:57.167Z,21.05
2022-11-18T16:43:25.257Z,21.07
2022-11-18T16:45:53.329Z,21.08
2022-11-18T16:48:21.102Z,21.10
2022-11-18T16:50:57.793Z,21.10
2022-11-18T16:53:26.205Z,21.10
2022-11-18T16:55:53.990Z,21.12
2022-11-18T16:58:23.653Z,21.11
2022-11-18T17:01:17.562Z,21.12
2022-11-18T17:03:38.333Z,21.13
2022-11-18T17:06:05.510Z,21.14
2022-11-18T17:08:35.056Z,21.15
2022-11-18T17:11:06.307Z,21.15
2022-11-18T17:13:33.351Z,21.15
2022-11-18T17:16:03.832Z,21.13
2022-11-18T17:18:31.061Z,21.11
2022-11-18T17:21:02.112Z,21.10
2022-11-18T17:23:29.183Z,21.09
2022-11-18T17:25:56.122Z,21.06
2022-11-18T17:28:23.455Z,21.06
2022-11-18T17:30:51.014Z,21.06
2022-11-18T17:33:18.119Z,21.05
2022-11-18T17:35:45.214Z,21.04
2022-11-18T17:38:12.363Z,21.06
2022-11-18T17:40:39.526Z,21.06
2022-11-18T17:43:06.588Z,21.05
2022-11-18T17:45:33.616Z,21.07
2022-11-18T17:48:01.013Z,21.08
2022-11-18T17:50:28.052Z,21.06
2022-11-18T17:52:55.643Z,21.06
2022-11-18T17:55:22.930Z,21.08
2022-11-18T17:57:49.933Z,21.06
2022-11-18T18:00:17.576Z,21.07
2022-11-18T18:02:44.781Z,21.04
2022-11-18T18:05:11.861Z,21.06
2022-11-18T18:07:39.147Z,21.02
2022-11-18T18:10:06.782Z,21.00
2022-11-18T18:12:44.757Z,21.01
2022-11-18T18:15:14.599Z,21.00
2022-11-18T18:17:41.638Z,21.01
2022-11-18T18:20:09.267Z,20.99
2022-11-18T18:22:36.669Z,20.96
2022-11-18T18:25:03.717Z,20.95
2022-11-18T18:27:31.349Z,20.95
2022-11-18T18:29:58.791Z,20.94
2022-11-18T18:32:26.525Z,20.93
2022-11-18T18:34:53.812Z,20.91
2022-11-18T18:37:23.673Z,20.90
2022-11-18T18:39:53.978Z,20.89
2022-11-18T18:42:26.405Z,20.88
2022-11-18T18:45:14.450Z,20.85
2022-11-18T18:47:41.724Z,20.85
2022-11-18T18:50:08.954Z,20.84
2022-11-18T18:52:36.866Z,20.84
2022-11-18T18:55:04.433Z,20.82
2022-11-18T18:57:32.047Z,20.79
2022-11-18T18:59:59.193Z,20.77
2022-11-18T19:02:26.294Z,20.77
2022-11-18T19:04:53.321Z,20.73
2022-11-18T19:07:20.433Z,20.72
2022-11-18T19:09:47.527Z,20.71
2022-11-18T19:12:24.580Z,20.70
2022-11-18T19:14:51.780Z,20.67
2022-11-18T19:17:18.867Z,20.66
2022-11-18T19:19:55.619Z,20.65
2022-11-18T19:22:22.629Z,20.63
2022-11-18T19:24:50.917Z,20.62
2022-11-18T19:27:18.839Z,20.59
2022-11-18T19:29:45.964Z,20.58
2022-11-18T19:32:13.120Z,20.57
2022-11-18T19:34:40.191Z,20.55
2022-11-18T19:37:07.324Z,20.55
2022-11-18T19:39:35.567Z,20.54
2022-11-18T19:42:02.484Z,20.53
2022-11-18T19:44:29.777Z,20.52
2022-11-18T19:46:56.806Z,20.53
2022-11-18T19:49:23.765Z,20.52
2022-11-18T19:51:50.867Z,20.52
2022-11-18T19:54:18.073Z,20.52
2022-11-18T19:56:44.996Z,20.54
2022-11-18T19:59:13.924Z,20.56
2022-11-18T20:01:41.667Z,20.55
2022-11-18T20:04:08.853Z,20.55
2022-11-18T20:06:36.756Z,20.57
2022-11-18T20:09:06.740Z,20.58
2022-11-18T20:11:33.636Z,20.59
2022-11-18T20:14:00.618Z,20.60
2022-11-18T20:16:27.778Z,20.61
2022-11-18T20:18:56.961Z,20.62
2022-11-18T20:21:24.630Z,20.65
2022-11-18T20:23:52.806Z,20.64
2022-11-18T20:26:20.558Z,20.66
2022-11-18T20:28:54.333Z,20.69
2022-11-18T20:31:24.848Z,20.70
2022-11-18T20:33:53.926Z,20.71
2022-11-18T20:36:24.160Z,20.71
2022-11-18T20:38:52.349Z,20.73
2022-11-18T20:41:19.827Z,20.74
2022-11-18T20:43:48.569Z,20.79
2022-11-18T20:46:20.456Z,20.80
2022-11-18T20:48:48.714Z,20.81
2022-11-18T20:51:17.469Z,20.82
2022-11-18T20:53:44.657Z,20.83
2022-11-18T20:56:14.251Z,20.83
2022-11-18T20:58:41.612Z,20.81
2022-11-18T21:01:17.824Z,20.80
2022-11-18T21:03:51.527Z,20.77
2022-11-18T21:06:18.586Z,20.76
2022-11-18T21:08:45.569Z,20.75
2022-11-18T21:11:13.294Z,20.73
2022-11-18T21:13:50.536Z,20.72
2022-11-18T21:16:18.089Z,20.70
2022-11-18T21:18:45.117Z,20.67
2022-11-18T21:21:21.556Z,20.67
2022-11-18T21:23:48.571Z,20.71
2022-11-18T21:26:15.732Z,20.71
2022-11-18T21:28:42.677Z,20.71
2022-11-18T21:31:10.985Z,20.73
2022-11-18T21:33:38.100Z,20.73
2022-11-18T21:36:05.594Z,20.72
2022-11-18T21:38:32.587Z,20.71
2022-11-18T21:41:04.834Z,20.71
2022-11-18T21:44:03.868Z,20.73
2022-11-18T21:46:20.976Z,20.75
2022-11-18T21:48:48.205Z,20.76
2022-11-18T21:51:16.511Z,20.77
2022-11-18T21:53:43.871Z,20.79
2022-11-18T21:56:12.615Z,20.81
2022-11-18T21:58:39.854Z,20.84
2022-11-18T22:01:09.330Z,20.86
2022-11-18T22:03:36.747Z,20.89
2022-11-18T22:06:04.000Z,20.91
2022-11-18T22:08:30.707Z,20.93
2022-11-18T22:10:58.218Z,20.96
2022-11-18T22:13:24.931Z,20.97
2022-11-18T22:16:03.741Z,20.97
2022-11-18T22:18:31.556Z,20.98
2022-11-18T22:20:59.704Z,21.00
2022-11-18T22:23:30.411Z,21.02
2022-11-18T22:25:59.044Z,21.03
2022-11-18T22:28:25.764Z,21.04
2022-11-18T22:30:52.937Z,21.05
2022-11-18T22:33:20.029Z,21.06
2022-11-18T22:35:48.036Z,21.07
2022-11-18T22:38:14.773Z,21.07
2022-11-18T22:40:41.422Z,21.06
2022-11-18T22:43:08.115Z,21.08
2022-11-18T22:45:36.307Z,21.10
2022-11-18T22:48:03.063Z,21.09
2022-11-18T22:50:30.300Z,21.11
2022-11-18T22:52:57.021Z,21.04
2022-11-18T22:55:23.695Z,20.97
2022-11-18T22:57:50.323Z,20.99
2022-11-18T23:00:17.088Z,21.01
2022-11-18T23:02:43.735Z,21.01
2022-11-18T23:05:10.909Z,21.01
2022-11-18T23:07:37.671Z,21.03
2022-11-18T23:10:04.563Z,21.03
2022-11-18T23:12:55.248Z,21.03
2022-11-18T23:15:21.879Z,21.03
2022-11-18T23:17:48.531Z,21.03
2022-11-18T23:20:16.124Z,21.03
2022-11-18T23:22:42.772Z,21.02
2022-11-18T23:25:09.550Z,21.04
2022-11-18T23:27:36.182Z,21.05
2022-11-18T23:30:02.856Z,21.07
2022-11-18T23:32:33.485Z,21.10
2022-11-18T23:35:00.082Z,21.13
2022-11-18T23:37:26.840Z,21.17
2022-11-18T23:39:53.464Z,21.22
2022-11-18T23:42:20.110Z,21.24
2022-11-18T23:44:46.864Z,21.28
2022-11-18T23:47:13.567Z,21.31
2022-11-18T23:49:40.257Z,21.36
2022-11-18T23:52:06.880Z,21.40
2022-11-18T23:54:33.536Z,21.43
2022-11-18T23:57:00.197Z,21.47
2022-11-18T23:59:26.845Z,21.49
